Ana Sayfa
METAR-TAF:

METAR-TAF

Havaalanları :

Fiumicino

Roma-Fiumicino, İtalya

Enlem: 41-48N, Boylam: 012-14E, yükseklik: 2 m

Güncel hava durumu gözlemi

Rapor saat 14:50 UTC de 37 dakika önce yapıldı.
Rüzgar kuzeydoğudan 5 kt
Sıcaklık 10°C
Nem 87%
Basınç 1011 hPa
Görüş mesafesi 10 km veya daha fazla
2500 ft yükseklikte parçalı bulutlu
3500 ft yükseklikte parçalı bulutlu
hafif yağmur

METAR: LIRF 201450Z 04005KT 9999 -RA SCT025 SCT035 10/08 Q1011 RERA NOSIG

Saat: 16:27 (15:27 UTC)

Tahmin

Rapor saat 11:00 UTC de 4 saat ve 27 dakika önce yapıldı.
Ayın 20'si saat 12 UTC'den ayın 21'si saat 18 UTC'ye kadar geçerli Tahmin
Rüzgar kuzeydoğudan 12 kt
Görüş mesafesi 10 km veya daha fazla
4000 ft yükseklikte parçalı çok bulutlu
Geçici
ayın 20'si saat 12 UTC'den ayın 20'si saat 16 UTC'ye kadar
yağmur
Geçici
ayın 21'si saat 10 UTC'den ayın 21'si saat 15 UTC'ye kadar
yağmur

TAF: LIRF 201100Z 2012/2118 04012KT 9999 BKN040 TEMPO 2012/2016 RA TEMPO 2110/2115 RA

4.000'den fazla havaalanı için hava durumu gözlemleri ve tahminleri (METAR ve TAF raporları).

Kullanılabilir istasyonlar harita üzerinde sarı ve kırmızı noktalarla gösterilir.

İstasyonun adını görmek için fareyi noktanın üzerinde gezdirin.

Sonrasında hava gözlem ve tahminlerini görmek için tıklayın.

Haritayı değiştirmek için: yaklaştırmak için siyah artı işaretli yeşil düğmeye ve uzaklaştırmak için de eksi işaretli düğmeye hızla tıklayın; bitişik haritalar için yeşil okları kullanın.


METAR-TAF: